Time;durP1;ratioP1;P1;durP2;ratioP2;P2;SDS_P1;SDS_P2;PMS_P1;PMS_P2;Temp;Humidity;BMP_temperature;BMP_pressure;BME280_temperature;BME280_humidity;BME280_pressure;Samples;Min_cycle;Max_cycle;Signal;HPM_P1;HPM_P2
2021/10/29 00:01:40;;;;;;;21.58;10.55;;;;;;;;;;4917069;29;20079;-37
2021/10/29 00:04:05;;;;;;;28.17;12.80;;;;;;;;;;4917339;29;20044;-37
2021/10/29 00:06:31;;;;;;;21.60;10.40;;;;;;;;;;4917204;29;20073;-38
2021/10/29 00:08:56;;;;;;;26.83;12.52;;;;;;;;;;4931893;29;20039;-37
2021/10/29 00:11:22;;;;;;;21.58;13.07;;;;;;;;;;4917197;29;20083;-37
2021/10/29 00:13:47;;;;;;;23.38;11.63;;;;;;;;;;4917140;29;20031;-37
2021/10/29 00:16:12;;;;;;;22.08;11.88;;;;;;;;;;4917336;29;20376;-37
2021/10/29 00:18:38;;;;;;;26.52;12.32;;;;;;;;;;4917126;29;20129;-37
2021/10/29 00:21:03;;;;;;;22.85;12.00;;;;;;;;;;4916958;29;20480;-37
2021/10/29 00:23:30;;;;;;;19.85;11.07;;;;;;;;;;4916950;29;20123;-37
2021/10/29 00:25:56;;;;;;;22.45;12.25;;;;;;;;;;4916937;29;20038;-37
2021/10/29 00:28:22;;;;;;;23.20;13.23;;;;;;;;;;4917118;29;20107;-36
2021/10/29 00:30:47;;;;;;;22.48;12.10;;;;;;;;;;4915593;29;20031;-37
2021/10/29 00:33:15;;;;;;;23.65;11.93;;;;;;;;;;4916968;29;20052;-37
2021/10/29 00:35:41;;;;;;;15.48;9.15;;;;;;;;;;4931480;29;20036;-37
2021/10/29 00:38:06;;;;;;;26.63;13.30;;;;;;;;;;4916537;29;20095;-37
2021/10/29 00:40:32;;;;;;;23.80;12.90;;;;;;;;;;4916603;29;20031;-37
2021/10/29 00:42:57;;;;;;;23.20;11.82;;;;;;;;;;4916888;29;20028;-37
2021/10/29 00:45:23;;;;;;;27.55;13.40;;;;;;;;;;4916594;29;20043;-37
2021/10/29 00:47:51;;;;;;;22.00;11.45;;;;;;;;;;4916583;29;20353;-37
2021/10/29 00:50:16;;;;;;;25.20;13.10;;;;;;;;;;4916571;29;20040;-37
2021/10/29 00:52:42;;;;;;;26.92;13.93;;;;;;;;;;4915653;29;20027;-38
2021/10/29 00:55:08;;;;;;;21.73;11.65;;;;;;;;;;4916364;29;20068;-37
2021/10/29 00:57:34;;;;;;;19.80;12.25;;;;;;;;;;4916341;29;20106;-37
2021/10/29 00:59:59;;;;;;;23.75;13.45;;;;;;;;;;4916091;29;20558;-37
2021/10/29 01:02:26;;;;;;;25.90;12.35;;;;;;;;;;4916220;29;20044;-37
2021/10/29 01:04:51;;;;;;;22.23;12.00;;;;;;;;;;4914893;29;20481;-37
2021/10/29 01:07:17;;;;;;;25.05;12.30;;;;;;;;;;4916102;29;20032;-37
2021/10/29 01:09:43;;;;;;;24.60;13.25;;;;;;;;;;4916167;29;20036;-37
2021/10/29 01:12:08;;;;;;;21.10;10.35;;;;;;;;;;4916272;29;20144;-37
2021/10/29 01:14:34;;;;;;;22.92;11.95;;;;;;;;;;4916101;29;20059;-37
2021/10/29 01:16:59;;;;;;;21.25;12.70;;;;;;;;;;4916229;29;20031;-37
2021/10/29 01:19:29;;;;;;;26.58;13.30;;;;;;;;;;4915986;29;20495;-37
2021/10/29 01:21:55;;;;;;;22.92;11.05;;;;;;;;;;4915877;29;20797;-37
2021/10/29 01:24:21;;;;;;;20.27;11.63;;;;;;;;;;4916016;29;20044;-37
2021/10/29 01:26:46;;;;;;;22.83;10.85;;;;;;;;;;4915778;29;20027;-38
2021/10/29 01:29:12;;;;;;;22.33;13.45;;;;;;;;;;4916073;29;20032;-37
2021/10/29 01:31:37;;;;;;;24.48;13.73;;;;;;;;;;4914487;29;20023;-37
2021/10/29 01:34:03;;;;;;;20.38;10.50;;;;;;;;;;4915828;29;20085;-37
2021/10/29 01:36:28;;;;;;;23.88;12.52;;;;;;;;;;4915702;29;20020;-37
2021/10/29 01:38:54;;;;;;;23.17;11.43;;;;;;;;;;4915902;29;20044;-37
2021/10/29 01:41:19;;;;;;;23.85;12.52;;;;;;;;;;4915441;29;20468;-37
2021/10/29 01:43:45;;;;;;;19.63;11.50;;;;;;;;;;4915516;29;20043;-37
2021/10/29 01:46:11;;;;;;;24.73;13.05;;;;;;;;;;4915673;29;20428;-37
2021/10/29 01:48:45;;;;;;;24.98;12.43;;;;;;;;;;4915392;29;20064;-37
2021/10/29 01:51:11;;;;;;;27.90;13.10;;;;;;;;;;4915353;29;20028;-37
2021/10/29 01:53:36;;;;;;;22.48;12.95;;;;;;;;;;4915397;29;20060;-37
2021/10/29 01:56:02;;;;;;;22.73;11.70;;;;;;;;;;4915556;29;20028;-37
2021/10/29 01:58:27;;;;;;;21.25;11.13;;;;;;;;;;4914091;29;20585;-38
2021/10/29 02:00:53;;;;;;;24.55;11.35;;;;;;;;;;4915305;29;20038;-37
2021/10/29 02:03:18;;;;;;;23.33;13.13;;;;;;;;;;4914653;29;20134;-37
2021/10/29 02:05:44;;;;;;;21.25;10.93;;;;;;;;;;4915252;29;20071;-37
2021/10/29 02:08:10;;;;;;;24.33;12.30;;;;;;;;;;4915450;29;20055;-37
2021/10/29 02:10:36;;;;;;;24.58;12.52;;;;;;;;;;4915074;29;20489;-37
2021/10/29 02:13:02;;;;;;;26.80;14.38;;;;;;;;;;4915062;29;20099;-37
2021/10/29 02:15:27;;;;;;;25.02;13.90;;;;;;;;;;4914022;29;20032;-37
2021/10/29 02:17:53;;;;;;;24.65;13.93;;;;;;;;;;4915242;29;20035;-37
2021/10/29 02:20:18;;;;;;;21.67;12.30;;;;;;;;;;4915255;29;20448;-37
2021/10/29 02:22:44;;;;;;;25.30;12.85;;;;;;;;;;4915134;29;20080;-37
2021/10/29 02:25:09;;;;;;;22.95;13.23;;;;;;;;;;4914849;29;20040;-38
2021/10/29 02:27:35;;;;;;;28.90;14.27;;;;;;;;;;4915034;29;20487;-38
2021/10/29 02:30:00;;;;;;;20.95;13.00;;;;;;;;;;4914885;29;20031;-37
2021/10/29 02:32:26;;;;;;;23.45;11.68;;;;;;;;;;4914867;29;20029;-37
2021/10/29 02:34:51;;;;;;;22.52;12.40;;;;;;;;;;4913775;29;20036;-37
2021/10/29 02:37:17;;;;;;;20.83;11.00;;;;;;;;;;4914807;29;20024;-37
2021/10/29 02:39:43;;;;;;;24.38;12.05;;;;;;;;;;4915096;29;20107;-37
2021/10/29 02:42:09;;;;;;;26.35;11.90;;;;;;;;;;4914726;29;20020;-37
2021/10/29 02:44:35;;;;;;;21.02;11.55;;;;;;;;;;4914890;29;20088;-37
2021/10/29 02:47:00;;;;;;;20.60;12.15;;;;;;;;;;4914957;29;20024;-37
2021/10/29 02:49:26;;;;;;;28.08;13.32;;;;;;;;;;4914717;29;20482;-37
2021/10/29 02:51:51;;;;;;;23.83;12.77;;;;;;;;;;4929492;29;20055;-37
2021/10/29 02:54:16;;;;;;;24.90;13.75;;;;;;;;;;4914809;29;20035;-37
2021/10/29 02:56:42;;;;;;;21.83;12.73;;;;;;;;;;4914746;29;20020;-37
2021/10/29 02:59:07;;;;;;;29.50;12.95;;;;;;;;;;4914720;29;20040;-37
2021/10/29 03:01:33;;;;;;;20.83;12.48;;;;;;;;;;4914470;29;20052;-37
2021/10/29 03:03:58;;;;;;;21.58;13.30;;;;;;;;;;4914699;29;20104;-37
2021/10/29 03:06:24;;;;;;;19.55;11.13;;;;;;;;;;4914572;29;20076;-37
2021/10/29 03:08:49;;;;;;;21.55;13.93;;;;;;;;;;4914654;29;20024;-37
2021/10/29 03:11:15;;;;;;;22.92;13.13;;;;;;;;;;4913326;29;20024;-37
2021/10/29 03:13:40;;;;;;;28.95;15.93;;;;;;;;;;4914685;29;20103;-37
2021/10/29 03:16:06;;;;;;;26.75;13.23;;;;;;;;;;4916551;29;20187;-37
2021/10/29 03:18:31;;;;;;;25.55;14.15;;;;;;;;;;4918223;29;20035;-38
2021/10/29 03:20:56;;;;;;;24.48;11.98;;;;;;;;;;4917982;29;20578;-37
2021/10/29 03:23:22;;;;;;;24.27;12.90;;;;;;;;;;4918240;29;20048;-37
2021/10/29 03:25:47;;;;;;;24.17;13.23;;;;;;;;;;4918095;29;20115;-37
2021/10/29 03:28:13;;;;;;;22.60;13.13;;;;;;;;;;4917878;29;20032;-37
2021/10/29 03:30:39;;;;;;;22.85;11.93;;;;;;;;;;4917988;29;20099;-38
2021/10/29 03:33:05;;;;;;;25.00;14.02;;;;;;;;;;4917816;29;20464;-37
2021/10/29 03:35:31;;;;;;;28.38;12.82;;;;;;;;;;4917799;29;20031;-37
2021/10/29 03:40:44;;;;;;;27.83;14.55;;;;;;;;;;4918020;29;20028;-37
2021/10/29 03:45:44;;;;;;;29.20;13.75;;;;;;;;;;4917607;29;20107;-37
2021/10/29 03:48:11;;;;;;;24.13;13.60;;;;;;;;;;4917606;29;20039;-37
2021/10/29 03:50:39;;;;;;;27.30;13.73;;;;;;;;;;4917503;29;20024;-37
2021/10/29 03:53:22;;;;;;;23.20;14.05;;;;;;;;;;4917735;29;20111;-37
2021/10/29 03:55:48;;;;;;;28.50;13.05;;;;;;;;;;4917567;29;20032;-37
2021/10/29 03:58:13;;;;;;;22.73;13.63;;;;;;;;;;4917708;29;20076;-37
2021/10/29 04:00:38;;;;;;;26.42;11.10;;;;;;;;;;4917422;29;20111;-37
2021/10/29 04:03:04;;;;;;;23.17;13.55;;;;;;;;;;4917242;29;20048;-37
2021/10/29 04:05:31;;;;;;;26.48;12.73;;;;;;;;;;4916008;29;20040;-38
2021/10/29 04:07:56;;;;;;;23.85;9.50;;;;;;;;;;4917322;29;20024;-37
2021/10/29 04:10:27;;;;;;;22.95;13.52;;;;;;;;;;4917411;29;20076;-38
2021/10/29 04:12:53;;;;;;;26.42;12.90;;;;;;;;;;4917125;29;20036;-37
2021/10/29 04:15:18;;;;;;;27.25;13.95;;;;;;;;;;4915936;29;20032;-37
2021/10/29 04:17:44;;;;;;;26.42;12.48;;;;;;;;;;4917140;29;20024;-37
2021/10/29 04:20:10;;;;;;;26.38;13.32;;;;;;;;;;4916948;29;20028;-37
2021/10/29 04:22:35;;;;;;;27.25;13.25;;;;;;;;;;4917094;29;20020;-37
2021/10/29 04:25:00;;;;;;;19.95;11.77;;;;;;;;;;4916917;29;20408;-37
2021/10/29 04:27:31;;;;;;;22.63;12.10;;;;;;;;;;4916914;29;20467;-37
2021/10/29 04:29:57;;;;;;;24.33;12.60;;;;;;;;;;4916918;29;20051;-37
2021/10/29 04:32:22;;;;;;;28.50;13.73;;;;;;;;;;4916982;29;20020;-37
2021/10/29 04:34:48;;;;;;;24.63;13.13;;;;;;;;;;4917094;29;20547;-37
2021/10/29 04:37:13;;;;;;;23.10;11.70;;;;;;;;;;4916733;29;20387;-37
2021/10/29 04:39:39;;;;;;;25.10;14.27;;;;;;;;;;4916659;29;20118;-38
2021/10/29 04:42:05;;;;;;;33.10;13.82;;;;;;;;;;4916833;29;20107;-37
2021/10/29 04:44:30;;;;;;;15.25;8.00;;;;;;;;;;4916852;29;20407;-37
2021/10/29 04:46:55;;;;;;;24.67;12.65;;;;;;;;;;4916640;29;20023;-37
2021/10/29 04:49:21;;;;;;;26.63;12.27;;;;;;;;;;4916479;29;20032;-38
2021/10/29 04:51:47;;;;;;;24.85;13.60;;;;;;;;;;4916482;29;20019;-37
2021/10/29 04:54:12;;;;;;;31.25;13.95;;;;;;;;;;4916368;29;20028;-37
2021/10/29 04:56:38;;;;;;;20.60;12.18;;;;;;;;;;4916458;29;20013;-37
2021/10/29 04:59:04;;;;;;;19.38;12.25;;;;;;;;;;4916633;29;20409;-37
2021/10/29 05:01:29;;;;;;;28.38;13.57;;;;;;;;;;4916099;29;20551;-37
2021/10/29 05:03:55;;;;;;;32.30;13.60;;;;;;;;;;4916490;29;20048;-37
2021/10/29 05:06:20;;;;;;;26.48;14.32;;;;;;;;;;4916241;29;20503;-37
2021/10/29 05:08:46;;;;;;;23.45;12.90;;;;;;;;;;4915159;29;20107;-38
2021/10/29 05:11:11;;;;;;;29.00;14.90;;;;;;;;;;4916104;29;20024;-37
2021/10/29 05:13:37;;;;;;;28.30;13.25;;;;;;;;;;4916132;29;20032;-37
2021/10/29 05:16:02;;;;;;;31.20;13.27;;;;;;;;;;4916019;29;20443;-37
2021/10/29 05:18:28;;;;;;;20.80;10.82;;;;;;;;;;4915955;29;20043;-37
2021/10/29 05:20:53;;;;;;;27.00;13.38;;;;;;;;;;4915896;29;20023;-38
2021/10/29 05:23:19;;;;;;;27.92;14.52;;;;;;;;;;4914738;29;20118;-37
2021/10/29 05:25:44;;;;;;;22.45;12.68;;;;;;;;;;4916090;29;20072;-37
2021/10/29 05:28:10;;;;;;;23.90;14.27;;;;;;;;;;4915785;29;20111;-37
2021/10/29 05:30:38;;;;;;;24.70;12.57;;;;;;;;;;4915768;29;20472;-37
2021/10/29 05:33:04;;;;;;;21.98;11.50;;;;;;;;;;4915783;29;20146;-37
2021/10/29 05:35:29;;;;;;;25.92;13.38;;;;;;;;;;4915664;29;20099;-37
2021/10/29 05:37:55;;;;;;;25.80;13.18;;;;;;;;;;4915446;29;20472;-37
2021/10/29 05:40:20;;;;;;;26.75;13.00;;;;;;;;;;4915482;29;20027;-37
2021/10/29 05:42:46;;;;;;;27.17;13.93;;;;;;;;;;4915612;29;20035;-37
2021/10/29 05:45:12;;;;;;;32.03;15.65;;;;;;;;;;4915393;29;20380;-37
2021/10/29 05:47:38;;;;;;;23.42;12.32;;;;;;;;;;4915532;29;20032;-38
2021/10/29 05:50:09;;;;;;;24.10;12.85;;;;;;;;;;4915741;29;20024;-36
2021/10/29 05:52:39;;;;;;;22.55;12.73;;;;;;;;;;4915367;29;20074;-37
2021/10/29 05:55:17;;;;;;;26.17;12.95;;;;;;;;;;4915799;29;20028;-37
2021/10/29 05:57:44;;;;;;;25.42;13.32;;;;;;;;;;4915439;29;20040;-37
2021/10/29 06:00:10;;;;;;;33.38;14.15;;;;;;;;;;4915239;29;20444;-37
2021/10/29 06:02:39;;;;;;;28.92;14.02;;;;;;;;;;4915191;29;20403;-37
2021/10/29 06:05:05;;;;;;;25.65;12.98;;;;;;;;;;4915156;29;20096;-37
2021/10/29 06:07:31;;;;;;;32.30;13.85;;;;;;;;;;4915318;29;20099;-37
2021/10/29 06:09:57;;;;;;;24.65;11.60;;;;;;;;;;4915195;29;20025;-37
2021/10/29 06:12:22;;;;;;;25.88;13.65;;;;;;;;;;4915203;29;20043;-37
2021/10/29 06:14:48;;;;;;;28.35;14.60;;;;;;;;;;4915370;29;20035;-36
2021/10/29 06:17:17;;;;;;;28.63;13.10;;;;;;;;;;4915357;29;20070;-37
2021/10/29 06:19:43;;;;;;;19.00;10.65;;;;;;;;;;4915076;29;20032;-37
2021/10/29 06:24:41;;;;;;;27.35;11.95;;;;;;;;;;4915032;29;20510;-37
2021/10/29 06:29:44;;;;;;;21.45;11.18;;;;;;;;;;4915067;29;20048;-37
2021/10/29 06:32:09;;;;;;;25.35;12.55;;;;;;;;;;4914920;29;20200;-37
2021/10/29 06:34:35;;;;;;;23.15;12.30;;;;;;;;;;4915046;29;20032;-37
2021/10/29 06:37:05;;;;;;;24.25;13.50;;;;;;;;;;4929664;29;20475;-37
2021/10/29 06:39:30;;;;;;;21.17;12.15;;;;;;;;;;4914802;29;20032;-37
2021/10/29 06:41:57;;;;;;;21.75;12.07;;;;;;;;;;4914944;29;20020;-37
2021/10/29 06:44:34;;;;;;;23.17;12.15;;;;;;;;;;4915070;29;20114;-37
2021/10/29 06:47:31;;;;;;;22.02;13.07;;;;;;;;;;4914969;29;20092;-37
2021/10/29 07:41:12;;;;;;;25.48;13.68;;;;;;;;;;4917767;29;20111;-37
2021/10/29 07:43:44;;;;;;;20.98;12.13;;;;;;;;;;4917702;29;20066;-37
2021/10/29 07:46:11;;;;;;;25.52;13.25;;;;;;;;;;4917824;29;20032;-37
2021/10/29 07:48:36;;;;;;;23.15;12.68;;;;;;;;;;4917889;29;20039;-37
2021/10/29 07:51:02;;;;;;;21.17;11.32;;;;;;;;;;4917832;29;20119;-37
2021/10/29 07:53:29;;;;;;;26.55;12.52;;;;;;;;;;4917497;29;20024;-37
2021/10/29 07:55:59;;;;;;;27.13;15.23;;;;;;;;;;4917580;29;20107;-37
2021/10/29 07:58:25;;;;;;;23.10;12.70;;;;;;;;;;4917314;29;20088;-37
2021/10/29 08:00:51;;;;;;;27.88;15.43;;;;;;;;;;4917154;29;20032;-37
2021/10/29 08:03:17;;;;;;;29.42;13.18;;;;;;;;;;4917141;29;20119;-38
2021/10/29 08:05:45;;;;;;;25.55;13.35;;;;;;;;;;4917180;29;20044;-37
2021/10/29 08:08:11;;;;;;;21.63;11.25;;;;;;;;;;4917244;29;20016;-37
2021/10/29 08:10:37;;;;;;;24.23;12.70;;;;;;;;;;4917149;29;20032;-37
2021/10/29 08:13:04;;;;;;;23.33;11.80;;;;;;;;;;4917443;29;20024;-37
2021/10/29 08:15:29;;;;;;;24.38;13.13;;;;;;;;;;4917194;29;20088;-37
2021/10/29 08:17:55;;;;;;;29.67;14.25;;;;;;;;;;4931688;29;20024;-37
2021/10/29 08:20:22;;;;;;;24.35;12.57;;;;;;;;;;4916865;29;20556;-38
2021/10/29 08:22:49;;;;;;;27.63;13.50;;;;;;;;;;4917076;29;20020;-37
2021/10/29 08:25:14;;;;;;;25.40;12.60;;;;;;;;;;4916947;29;20047;-38
2021/10/29 08:27:40;;;;;;;25.40;13.65;;;;;;;;;;4916980;29;20020;-37
2021/10/29 08:30:08;;;;;;;30.38;13.45;;;;;;;;;;4916855;29;20044;-37
2021/10/29 08:32:34;;;;;;;21.48;11.90;;;;;;;;;;4916981;29;20062;-37
2021/10/29 08:35:00;;;;;;;23.08;12.82;;;;;;;;;;4916738;29;20063;-37
2021/10/29 08:37:29;;;;;;;20.73;11.30;;;;;;;;;;4917009;29;20638;-37
2021/10/29 08:39:55;;;;;;;26.10;13.68;;;;;;;;;;4916867;29;20036;-37
2021/10/29 08:42:20;;;;;;;20.55;12.85;;;;;;;;;;4916684;29;20020;-37
2021/10/29 08:44:46;;;;;;;23.15;12.18;;;;;;;;;;4916673;29;20427;-37
2021/10/29 08:47:11;;;;;;;26.25;12.70;;;;;;;;;;4916590;29;20032;-37
2021/10/29 08:49:37;;;;;;;26.70;13.18;;;;;;;;;;4916471;29;20060;-37
2021/10/29 08:52:03;;;;;;;21.17;12.48;;;;;;;;;;4916612;29;20035;-37
2021/10/29 08:54:30;;;;;;;20.85;11.73;;;;;;;;;;4916349;29;20399;-37
2021/10/29 08:56:56;;;;;;;26.20;12.18;;;;;;;;;;4916447;29;20024;-37
2021/10/29 08:59:27;;;;;;;25.45;12.55;;;;;;;;;;4916306;29;20043;-37
2021/10/29 09:07:25;;;;;;;;;;;;;;;;;;4916703;29;20028;-37
2021/10/29 09:32:17;;;;;;;24.30;12.05;;;;;;;;;;4915751;29;20052;-37
2021/10/29 09:34:53;;;;;;;23.67;13.27;;;;;;;;;;4915774;29;20467;-36
2021/10/29 09:37:19;;;;;;;23.08;12.63;;;;;;;;;;4915695;29;20039;-37
2021/10/29 09:39:52;;;;;;;28.80;14.05;;;;;;;;;;4914294;29;20441;-37
2021/10/29 09:42:32;;;;;;;22.55;12.70;;;;;;;;;;4915658;29;20024;-37
2021/10/29 09:44:59;;;;;;;24.90;12.65;;;;;;;;;;4915499;29;20484;-37
2021/10/29 09:47:28;;;;;;;22.98;11.40;;;;;;;;;;4915665;29;20020;-37
2021/10/29 09:50:06;;;;;;;30.40;13.57;;;;;;;;;;4915493;29;20043;-37
2021/10/29 09:53:02;;;;;;;26.75;13.93;;;;;;;;;;4915373;29;20111;-36
2021/10/29 09:55:46;;;;;;;22.23;12.90;;;;;;;;;;4915302;29;20048;-37
2021/10/29 09:58:04;;;;;;;25.45;13.52;;;;;;;;;;4915306;29;20040;-37
2021/10/29 10:00:30;;;;;;;26.02;12.50;;;;;;;;;;4915275;29;20020;-37
2021/10/29 10:02:57;;;;;;;25.27;12.60;;;;;;;;;;4915234;29;20131;-37
2021/10/29 10:05:24;;;;;;;28.70;13.35;;;;;;;;;;4915151;29;20054;-37
2021/10/29 10:07:50;;;;;;;21.35;12.20;;;;;;;;;;4915178;29;20051;-37
2021/10/29 10:10:16;;;;;;;21.25;12.80;;;;;;;;;;4915237;29;20032;-38
2021/10/29 10:12:43;;;;;;;23.85;12.23;;;;;;;;;;4915491;29;20384;-37
2021/10/29 10:15:09;;;;;;;23.77;12.80;;;;;;;;;;4915223;29;20028;-37
2021/10/29 10:17:35;;;;;;;24.48;13.65;;;;;;;;;;4915140;29;20032;-38
2021/10/29 10:20:03;;;;;;;23.95;12.57;;;;;;;;;;4915341;29;20039;-37
2021/10/29 10:22:33;;;;;;;22.48;13.13;;;;;;;;;;4915119;29;20028;-37
2021/10/29 10:25:06;;;;;;;21.27;12.38;;;;;;;;;;4914704;29;20514;-37
2021/10/29 10:31:09;;;;;;;28.27;12.23;;;;;;;;;;4913727;29;19950;-37
2021/10/29 10:47:02;;;;;;;25.10;13.95;;;;;;;;;;4915153;29;20079;-37
2021/10/29 10:49:37;;;;;;;24.52;13.07;;;;;;;;;;4914607;29;20483;-37
2021/10/29 10:52:26;;;;;;;23.48;12.25;;;;;;;;;;4914936;29;20035;-37
2021/10/29 10:55:07;;;;;;;25.45;13.20;;;;;;;;;;4915105;29;20040;-37
2021/10/29 11:05:39;;;;;;;23.05;12.80;;;;;;;;;;4914623;29;20044;-37
2021/10/29 11:10:58;;;;;;;24.40;12.55;;;;;;;;;;4914566;29;20468;-40
2021/10/29 11:13:26;;;;;;;24.08;12.15;;;;;;;;;;4914762;29;20024;-37
2021/10/29 11:16:04;;;;;;;22.55;13.13;;;;;;;;;;4914595;29;20028;-37
2021/10/29 11:18:33;;;;;;;23.08;11.50;;;;;;;;;;4914460;29;20042;-37
2021/10/29 11:21:11;;;;;;;26.90;12.35;;;;;;;;;;4914592;29;20052;-37
2021/10/29 11:23:36;;;;;;;23.85;11.77;;;;;;;;;;4914636;29;20107;-37
2021/10/29 11:26:05;;;;;;;29.50;13.40;;;;;;;;;;4914509;29;20111;-37
2021/10/29 11:28:46;;;;;;;23.48;13.25;;;;;;;;;;4914430;29;20028;-37
2021/10/29 11:31:14;;;;;;;22.27;11.15;;;;;;;;;;4914531;29;20028;-37
2021/10/29 11:33:45;;;;;;;39.10;12.20;;;;;;;;;;4914512;29;20163;-37
2021/10/29 11:36:37;;;;;;;27.05;13.20;;;;;;;;;;4915090;29;20115;-37
2021/10/29 11:39:05;;;;;;;26.45;12.52;;;;;;;;;;4911489;29;20516;-37
2021/10/29 11:41:32;;;;;;;24.05;12.90;;;;;;;;;;4917980;29;20092;-37
2021/10/29 11:44:05;;;;;;;26.30;11.88;;;;;;;;;;4918044;29;20074;-38
2021/10/29 11:46:32;;;;;;;25.48;13.15;;;;;;;;;;4917587;29;20059;-37
2021/10/29 11:48:59;;;;;;;20.30;12.25;;;;;;;;;;4917661;29;20062;-37
2021/10/29 11:51:26;;;;;;;23.05;12.75;;;;;;;;;;4917458;29;20488;-37
2021/10/29 11:54:43;;;;;;;22.83;12.82;;;;;;;;;;4917543;29;20056;-37
2021/10/29 12:09:25;;;;;;;28.15;12.93;;;;;;;;;;4917280;29;20709;-37
2021/10/29 12:11:55;;;;;;;24.02;11.77;;;;;;;;;;4917227;29;20040;-37
2021/10/29 12:14:26;;;;;;;25.38;13.65;;;;;;;;;;4917198;29;20028;-37
2021/10/29 12:16:54;;;;;;;20.90;12.25;;;;;;;;;;4917161;29;20096;-37
2021/10/29 12:19:22;;;;;;;22.25;12.90;;;;;;;;;;4917146;29;20016;-37
2021/10/29 12:21:49;;;;;;;20.88;11.73;;;;;;;;;;4917109;29;20028;-37
2021/10/29 12:24:16;;;;;;;26.30;12.85;;;;;;;;;;4916979;29;20058;-37
2021/10/29 12:26:41;;;;;;;25.23;13.60;;;;;;;;;;4917339;29;20128;-37
2021/10/29 12:29:12;;;;;;;21.98;12.38;;;;;;;;;;4916830;29;20261;-38
2021/10/29 12:32:21;;;;;;;28.33;12.02;;;;;;;;;;4916843;29;20039;-37
2021/10/29 12:52:09;;;;;;;22.90;11.90;;;;;;;;;;4916707;29;20028;-37
2021/10/29 13:03:05;;;;;;;20.23;10.05;;;;;;;;;;4916255;29;20087;-38
2021/10/29 13:05:31;;;;;;;29.23;13.18;;;;;;;;;;4916142;29;20032;-38
2021/10/29 13:07:57;;;;;;;23.25;12.57;;;;;;;;;;4916476;29;20096;-37
2021/10/29 13:10:22;;;;;;;25.48;11.43;;;;;;;;;;4916063;29;20028;-37
2021/10/29 13:15:18;;;;;;;18.02;9.65;;;;;;;;;;4916156;29;20364;-37
2021/10/29 13:17:56;;;;;;;23.35;12.15;;;;;;;;;;4916141;29;20088;-38
2021/10/29 13:36:30;;;;;;;22.70;11.38;;;;;;;;;;4915773;29;20032;-37
2021/10/29 13:52:47;;;;;;;20.33;11.27;;;;;;;;;;4915605;29;20024;-37
2021/10/29 13:55:28;;;;;;;;;;;;;;;;;;4915794;29;20032;-37
2021/10/29 14:30:00;;;;;;;20.67;11.13;;;;;;;;;;4915056;29;20036;-37
2021/10/29 14:34:57;;;;;;;16.92;10.38;;;;;;;;;;4915099;29;20119;-36
2021/10/29 14:37:40;;;;;;;27.45;12.23;;;;;;;;;;4914862;29;20040;-37
2021/10/29 15:01:31;;;;;;;22.45;11.90;;;;;;;;;;4913607;29;20028;-37
2021/10/29 15:04:22;;;;;;;23.60;12.57;;;;;;;;;;4914597;29;20046;-37
2021/10/29 15:26:07;;;;;;;19.30;11.75;;;;;;;;;;4916911;29;20044;-37
2021/10/29 15:29:00;;;;;;;23.73;11.93;;;;;;;;;;4918018;29;20115;-37
2021/10/29 15:44:20;;;;;;;24.30;12.70;;;;;;;;;;4917946;29;20087;-37
2021/10/29 15:51:48;;;;;;;24.35;11.80;;;;;;;;;;4917671;29;20046;-37
2021/10/29 15:54:14;;;;;;;31.67;13.57;;;;;;;;;;4917737;29;20020;-37
2021/10/29 15:59:35;;;;;;;25.42;12.73;;;;;;;;;;4917563;29;20071;-37
2021/10/29 16:18:02;;;;;;;29.80;12.70;;;;;;;;;;4917092;29;20050;-37
2021/10/29 16:20:28;;;;;;;33.75;15.52;;;;;;;;;;4917072;29;20024;-42
2021/10/29 16:22:56;;;;;;;28.50;14.73;;;;;;;;;;4916711;29;20051;-37
2021/10/29 16:25:31;;;;;;;23.00;13.25;;;;;;;;;;4916944;29;20028;-37
2021/10/29 16:27:59;;;;;;;31.17;15.45;;;;;;;;;;4915579;29;20118;-37
2021/10/29 16:30:26;;;;;;;24.63;13.00;;;;;;;;;;4916920;29;20020;-37
2021/10/29 16:35:25;;;;;;;33.65;14.30;;;;;;;;;;4915531;29;20448;-37
2021/10/29 16:37:51;;;;;;;28.80;14.38;;;;;;;;;;4916893;29;20541;-37
2021/10/29 16:40:17;;;;;;;28.67;17.48;;;;;;;;;;4916810;29;20028;-38
2021/10/29 16:42:43;;;;;;;27.63;14.60;;;;;;;;;;4916714;29;20055;-37
2021/10/29 16:45:10;;;;;;;28.90;13.88;;;;;;;;;;4916646;29;20484;-37
2021/10/29 16:47:36;;;;;;;33.70;16.50;;;;;;;;;;4916593;29;20016;-37
2021/10/29 16:50:05;;;;;;;32.28;15.45;;;;;;;;;;4916662;29;20503;-37
2021/10/29 16:52:30;;;;;;;31.67;15.27;;;;;;;;;;4916673;29;20032;-37
2021/10/29 16:54:56;;;;;;;34.60;15.55;;;;;;;;;;4916842;29;20032;-37
2021/10/29 16:57:22;;;;;;;27.83;16.20;;;;;;;;;;4916465;29;20464;-37
2021/10/29 16:59:47;;;;;;;27.50;15.40;;;;;;;;;;4916614;29;20043;-37
2021/10/29 17:02:13;;;;;;;31.30;15.45;;;;;;;;;;4916504;29;20402;-37
2021/10/29 17:04:38;;;;;;;29.45;14.88;;;;;;;;;;4916258;29;20407;-37
2021/10/29 17:07:04;;;;;;;27.25;13.65;;;;;;;;;;4915003;29;20062;-37
2021/10/29 17:09:30;;;;;;;31.73;15.80;;;;;;;;;;4916444;29;20387;-39
2021/10/29 17:11:55;;;;;;;32.20;15.75;;;;;;;;;;4916205;29;20028;-37
2021/10/29 17:14:21;;;;;;;25.83;13.93;;;;;;;;;;4916096;29;20024;-37
2021/10/29 17:16:47;;;;;;;32.28;15.23;;;;;;;;;;4916096;29;20107;-37
2021/10/29 17:19:12;;;;;;;33.67;17.80;;;;;;;;;;4914782;29;20080;-37
2021/10/29 17:21:38;;;;;;;33.17;17.30;;;;;;;;;;4916191;29;20032;-37
2021/10/29 17:24:04;;;;;;;30.10;15.88;;;;;;;;;;4915892;29;20464;-37
2021/10/29 17:26:30;;;;;;;31.20;16.85;;;;;;;;;;4915877;29;20032;-38
2021/10/29 17:28:56;;;;;;;31.58;16.10;;;;;;;;;;4915811;29;20040;-37
2021/10/29 17:31:22;;;;;;;30.25;16.48;;;;;;;;;;4915856;29;20072;-36
2021/10/29 17:33:47;;;;;;;31.55;17.17;;;;;;;;;;4915167;29;20036;-37
2021/10/29 17:36:13;;;;;;;30.98;15.27;;;;;;;;;;4915730;29;20028;-37
2021/10/29 17:38:39;;;;;;;30.10;14.30;;;;;;;;;;4915613;29;20024;-37
2021/10/29 17:41:04;;;;;;;32.85;16.17;;;;;;;;;;4915794;29;20024;-37
2021/10/29 17:43:30;;;;;;;26.98;14.38;;;;;;;;;;4915505;29;20122;-37
2021/10/29 17:45:56;;;;;;;33.20;16.05;;;;;;;;;;4915679;29;20036;-37
2021/10/29 17:48:22;;;;;;;32.95;15.73;;;;;;;;;;4915713;29;20032;-37
2021/10/29 17:50:48;;;;;;;32.72;16.73;;;;;;;;;;4915788;29;20056;-37
2021/10/29 17:53:17;;;;;;;31.52;16.70;;;;;;;;;;4915849;29;20388;-37
2021/10/29 17:55:42;;;;;;;34.78;15.77;;;;;;;;;;4915389;29;20043;-37
2021/10/29 17:58:08;;;;;;;28.73;14.93;;;;;;;;;;4915478;29;20032;-37
2021/10/29 18:00:33;;;;;;;33.35;15.75;;;;;;;;;;4915455;29;20054;-37
2021/10/29 18:02:59;;;;;;;34.67;16.52;;;;;;;;;;4915388;29;20029;-37
2021/10/29 18:05:26;;;;;;;30.83;15.93;;;;;;;;;;4913787;29;20044;-37
2021/10/29 18:07:57;;;;;;;33.72;17.55;;;;;;;;;;4914177;29;20404;-37
2021/10/29 18:10:23;;;;;;;30.55;16.38;;;;;;;;;;4915270;29;20466;-37
2021/10/29 18:12:49;;;;;;;31.83;17.15;;;;;;;;;;4915317;29;20020;-37
2021/10/29 18:15:14;;;;;;;37.20;18.33;;;;;;;;;;4915514;29;20036;-37
2021/10/29 18:17:40;;;;;;;37.33;16.80;;;;;;;;;;4915390;29;20482;-37
2021/10/29 18:20:07;;;;;;;32.97;16.65;;;;;;;;;;4915186;29;20040;-37
2021/10/29 18:22:33;;;;;;;33.22;16.40;;;;;;;;;;4915190;29;20030;-37
2021/10/29 18:24:58;;;;;;;30.27;15.23;;;;;;;;;;4914945;29;20135;-37
2021/10/29 18:27:27;;;;;;;37.03;17.38;;;;;;;;;;4929795;29;20012;-37
2021/10/29 18:29:56;;;;;;;29.10;15.82;;;;;;;;;;4929682;29;20551;-37
2021/10/29 18:32:22;;;;;;;33.10;18.65;;;;;;;;;;4915129;29;20089;-37
2021/10/29 18:34:49;;;;;;;35.45;18.30;;;;;;;;;;4914212;29;20082;-37
2021/10/29 18:37:17;;;;;;;35.17;18.30;;;;;;;;;;4915005;29;20028;-37
2021/10/29 18:39:43;;;;;;;30.48;16.38;;;;;;;;;;4914845;29;20028;-38
2021/10/29 18:42:08;;;;;;;29.98;15.75;;;;;;;;;;4915026;29;20020;-37
2021/10/29 18:44:36;;;;;;;33.38;17.15;;;;;;;;;;4914800;29;20048;-37
2021/10/29 18:47:05;;;;;;;38.20;18.30;;;;;;;;;;4918679;29;20020;-37
2021/10/29 18:49:31;;;;;;;34.97;18.55;;;;;;;;;;4918905;29;20032;-37
2021/10/29 18:51:59;;;;;;;38.38;17.17;;;;;;;;;;4918837;29;20020;-37
2021/10/29 18:54:24;;;;;;;31.02;17.85;;;;;;;;;;4918614;29;20035;-37
2021/10/29 18:56:50;;;;;;;38.88;16.42;;;;;;;;;;4918656;29;20367;-36
2021/10/29 18:59:16;;;;;;;41.80;18.58;;;;;;;;;;4918629;29;20496;-37
2021/10/29 19:01:41;;;;;;;35.00;18.02;;;;;;;;;;4918467;29;20428;-37
2021/10/29 19:04:07;;;;;;;47.38;17.27;;;;;;;;;;4918530;29;20546;-37
2021/10/29 19:06:33;;;;;;;33.95;17.90;;;;;;;;;;4918268;29;20653;-37
2021/10/29 19:08:59;;;;;;;37.70;17.48;;;;;;;;;;4918607;29;20040;-37
2021/10/29 19:11:31;;;;;;;35.90;18.58;;;;;;;;;;4917220;29;20029;-37
2021/10/29 19:13:57;;;;;;;36.78;18.42;;;;;;;;;;4918372;29;20032;-37
2021/10/29 19:16:23;;;;;;;39.03;21.75;;;;;;;;;;4918264;29;20117;-37
2021/10/29 19:18:50;;;;;;;37.63;17.73;;;;;;;;;;4932761;29;20455;-36
2021/10/29 19:21:16;;;;;;;43.05;18.48;;;;;;;;;;4918128;29;20032;-37
2021/10/29 19:23:42;;;;;;;35.03;17.13;;;;;;;;;;4918075;29;20069;-37